Aérodrome :
LOGIN :

S'inscrire | Disclaimer

   EN    FR    IT 

 










Légende :    VFR   VFR Marginal   IFR   IFR Intensif   IFR Très Intensif
Visi : 
Plafond : 
>= 8 km
>= 3000ft
5 à 8 km
1000 à 3000 ft
1500m à 5 km
500 à 1000 ft
800 à 1500m
200 à 500 ft
< 800m
< 200 ft
Symboles :   Orages  Brouillard  Fortes neiges  Fortes précipitations  Vent > 20 kt
SIGMETs :   Divers  Orages  Givrage  Turbulence  Onde Orograph.  Cendres Volcan.







- Altitude de l'aérodrome : 290 ft
- Code IATA : ACI
- Voir les cartes d'approche


EGJA - Alderney

DERNIER METAR :
  • 011720Z 26025KT 9000 SCT020 BKN030 09/07 Q1000

METARs EXPIRÉS :
  • 011650Z 26022KT 9999 FEW020 SCT044 09/07 Q1000
  • 011620Z 26021KT 9999 BKN027 09/07 Q1000
  • 011550Z 26019KT 9999 SCT019 09/07 Q0999
  • 011520Z 27022KT 9999 FEW016 09/08 Q0999
  • 011450Z 26020KT 9999 FEW016 09/09 Q0999

TAF TAF EGJA
Valide du 01 à 15h jusqu'au 01 à 19h UTC


011400Z 0115/0119 25020KT 9999 SCT015
BECMG 0115/0116 27024G35KT
PROB30
TEMPO 0115/0117 BKN010
TEMPO 0118/0119 27030G45KT 6000 SHRA BKN015
Pas de NOTAMs connus pour ce terrain.
1 SIGMET publié pour la FIR Brest (LFRR) :
 
Turbulence forte
LFRR SIGMET 2 VALID 011600/012000 LFPW
LFRR BREST FIR/UIR SEV TURB OBS WI N4715 W00015 - N4630 W00015 - N4630 W00130 - N4530 W00145 - N4715 W00400 - N4745 W00115 SFC/FL040 STNR NC=



MET'MAP, la Météo Aéronautique d'un coup d'oeil ! - Copyright ORBIFLY Décembre 2007 - Disclaimer

ORBIFLY MET'MAP TEAM :

Programmation & Développement : Alexandra Zaïnal
Conception & Développement : Baudouin d'Aumeries
Co-Programmation & Développement : Marc-Olivier Méhu
Soutien technique & logistique : Manuel Goepfert

Contact : metmap@orbifly.com




SOURCES & CREDITS :

   NOAA